Angler Guide Weather for Koosharem -
Koosharem, Utah Current Weather Conditions
Enter your "Place, State", US Zip Code or ICAO:  
NowCast ZoneCast Warnings/Advisories Hourly Track Special Radar
Koosharem, Utah (84744)  Lat: 38.51N, Lon: 111.88W
Wx Zone: UTZ017 ICAO Used: KBCE
Current Conditions at nearby:
Bryce Canyon, Bryce Canyon Airport, UT
Updated: UNKNOWN
Sun & Moon Information:
Fair
Fair
Temp: 43°F
Humidity: 58%
Wind Speed: CALM
Barometer: 30.28 in.
Dewpoint: 29°F
Heat Index: 43°F
Wind Chill: 43°F
Civil Twilight: 7:08 AM MST
Moonrise: 12:52 PM MST Moon Phase:
Waxing Gibbous Moon
Waxing Gibbous Moon
Moonset: 2:12 AM MST
Sunrise: 7:36 AM MST
Sunset: 5:43 PM MST
Civil Twilight: 6:11 PM MST
Forecast for Koosharem, UT:
(Forecast based on TAF for )
0500 PM MST SAT NOV 29 2014
  
AFTERNOONEVENINGOVERNIGHTMORNING
TAF based forecast:
Dated: 0500 PM MST SAT NOV 29 2014
Afternoon....
Evening....
Overnight....
Morning....
Original Encoded TAF:
Dated: 0500 PM MST SAT NOV 29 2014
2015/01/28 18:36
TAF KBCE 281733Z 2818/2918 30007KT P6SM SCT150 
     FM290100 27005KT P6SM BKN150



Powered by Angler Guide.com
Copyright 2007, all rights reserved.